Terminal Aerodrome Forecast
Issued by NWS Shreveport, LA

Home | Current Version | Previous Version | Text Only | Print | Product List | Glossary On
Versions: 1 2 3 4 5 6 7 8 9 10 11 12
000
FTUS44 KSHV 311729
TAFTXK
TAF
KTXK 311729Z 3118/0118 14006KT P6SM SCT045
     FM010100 14004KT P6SM SCT250
     FM011100 20003KT P6SM BKN250
     FM011600 22005KT P6SM FEW035 BKN250=

USA.gov is the U.S. government's official web portal to all federal, state and local government web resources and services.